createdAt,value
2022-08-19T00:00:30.107Z,12.13
2022-08-19T00:02:58.834Z,13.27
2022-08-19T00:05:27.807Z,13.88
2022-08-19T00:07:56.119Z,12.97
2022-08-19T00:10:24.948Z,13.13
2022-08-19T00:12:54.342Z,11.55
2022-08-19T00:15:23.644Z,12.32
2022-08-19T00:17:52.238Z,10.43
2022-08-19T00:20:23.052Z,14.10
2022-08-19T00:22:51.248Z,13.65
2022-08-19T00:25:19.199Z,13.98
2022-08-19T00:28:00.328Z,14.17
2022-08-19T00:30:28.416Z,15.30
2022-08-19T00:32:56.635Z,14.38
2022-08-19T00:35:26.268Z,13.87
2022-08-19T00:37:55.837Z,12.98
2022-08-19T00:40:26.371Z,13.43
2022-08-19T00:42:55.335Z,14.45
2022-08-19T00:45:27.704Z,15.55
2022-08-19T00:47:55.586Z,16.88
2022-08-19T00:50:25.072Z,15.43
2022-08-19T00:52:53.529Z,14.65
2022-08-19T00:55:26.447Z,15.32
2022-08-19T00:57:57.039Z,15.35
2022-08-19T01:00:28.852Z,15.97
2022-08-19T01:02:57.101Z,13.18
2022-08-19T01:05:28.436Z,13.80
2022-08-19T01:07:59.281Z,12.55
2022-08-19T01:10:33.544Z,13.15
2022-08-19T01:13:05.057Z,16.35
2022-08-19T01:15:40.267Z,17.23
2022-08-19T01:18:09.584Z,16.17
2022-08-19T01:20:37.624Z,15.18
2022-08-19T01:23:07.024Z,15.90
2022-08-19T01:25:40.669Z,12.40
2022-08-19T01:28:10.613Z,13.30
2022-08-19T01:30:38.964Z,12.17
2022-08-19T01:33:12.392Z,10.77
2022-08-19T01:35:41.203Z,11.45
2022-08-19T01:38:22.604Z,14.75
2022-08-19T01:40:50.525Z,18.50
2022-08-19T01:43:19.923Z,19.80
2022-08-19T01:45:48.643Z,19.60
2022-08-19T01:48:16.664Z,19.75
2022-08-19T01:50:44.648Z,17.10
2022-08-19T01:53:17.193Z,18.30
2022-08-19T01:55:46.386Z,19.70
2022-08-19T01:58:17.752Z,19.50
2022-08-19T02:00:46.184Z,18.38
2022-08-19T02:03:14.891Z,16.90
2022-08-19T02:05:43.899Z,16.23
2022-08-19T02:08:12.635Z,16.08
2022-08-19T02:10:45.828Z,11.82
2022-08-19T02:13:15.714Z,12.00
2022-08-19T02:15:49.341Z,16.13
2022-08-19T02:18:18.241Z,13.23
2022-08-19T02:20:47.950Z,17.88
2022-08-19T02:23:16.642Z,20.02
2022-08-19T02:25:50.303Z,18.88
2022-08-19T02:28:19.262Z,18.65
2022-08-19T02:30:48.552Z,16.55
2022-08-19T02:33:18.759Z,19.13
2022-08-19T02:35:48.131Z,17.80
2022-08-19T02:38:26.889Z,23.57
2022-08-19T02:40:58.827Z,23.63
2022-08-19T02:43:28.397Z,24.27
2022-08-19T02:45:57.747Z,20.98
2022-08-19T02:48:27.689Z,21.20
2022-08-19T02:50:56.741Z,19.77
2022-08-19T02:53:26.396Z,19.17
2022-08-19T02:55:54.591Z,16.80
2022-08-19T02:58:25.391Z,16.33
2022-08-19T03:00:56.632Z,16.48
2022-08-19T03:03:24.703Z,18.95
2022-08-19T03:05:56.872Z,17.83
2022-08-19T03:08:26.902Z,18.55
2022-08-19T03:10:55.699Z,17.75
2022-08-19T03:13:25.279Z,19.60
2022-08-19T03:15:53.598Z,18.60
2022-08-19T03:18:23.322Z,19.85
2022-08-19T03:20:53.931Z,19.73
2022-08-19T03:23:22.298Z,18.45
2022-08-19T03:26:03.981Z,18.65
2022-08-19T03:28:51.351Z,17.10
2022-08-19T03:31:44.764Z,18.30
2022-08-19T03:34:13.544Z,18.60
2022-08-19T03:36:42.503Z,17.85
2022-08-19T03:39:11.436Z,16.67
2022-08-19T03:41:45.523Z,18.05
2022-08-19T03:44:17.994Z,18.30
2022-08-19T03:46:47.135Z,18.70
2022-08-19T03:49:15.573Z,19.50
2022-08-19T03:51:46.101Z,19.90
2022-08-19T03:54:16.615Z,20.75
2022-08-19T03:56:46.940Z,22.13
2022-08-19T03:59:17.759Z,23.40
2022-08-19T04:01:46.627Z,21.38
2022-08-19T04:04:14.486Z,18.07
2022-08-19T04:06:42.316Z,15.55
2022-08-19T04:09:11.984Z,16.83
2022-08-19T04:11:44.509Z,17.70
2022-08-19T04:14:15.175Z,16.13
2022-08-19T04:16:45.766Z,16.25
2022-08-19T04:19:14.262Z,16.70
2022-08-19T04:21:42.292Z,17.42
2022-08-19T04:24:11.315Z,19.40
2022-08-19T04:26:40.114Z,17.45
2022-08-19T04:29:12.776Z,18.77
2022-08-19T04:31:42.126Z,18.85
2022-08-19T04:34:12.847Z,19.25
2022-08-19T04:36:43.096Z,20.20
2022-08-19T04:39:13.911Z,17.17
2022-08-19T04:42:00.041Z,17.52
2022-08-19T04:44:33.106Z,21.60
2022-08-19T04:47:02.115Z,19.33
2022-08-19T04:49:40.386Z,20.58
2022-08-19T04:52:09.463Z,19.38
2022-08-19T04:54:39.403Z,21.77
2022-08-19T04:57:11.165Z,22.73
2022-08-19T04:59:40.746Z,20.05
2022-08-19T05:02:09.477Z,19.73
2022-08-19T05:04:40.191Z,18.05
2022-08-19T05:07:11.133Z,18.33
2022-08-19T05:09:58.427Z,18.20
2022-08-19T05:12:29.214Z,16.53
2022-08-19T05:14:57.714Z,17.88
2022-08-19T05:17:28.406Z,19.60
2022-08-19T05:20:16.658Z,16.02
2022-08-19T05:22:50.035Z,15.82
2022-08-19T05:25:21.470Z,19.52
2022-08-19T05:27:49.806Z,19.10
2022-08-19T05:30:18.983Z,20.08
2022-08-19T05:32:58.089Z,19.38
2022-08-19T05:35:26.075Z,19.83
2022-08-19T05:37:59.015Z,19.73
2022-08-19T05:40:27.151Z,20.73
2022-08-19T05:42:56.959Z,19.17
2022-08-19T05:45:25.595Z,20.13
2022-08-19T05:47:54.235Z,20.20
2022-08-19T05:50:23.563Z,19.83
2022-08-19T05:53:52.822Z,20.52
2022-08-19T05:56:22.146Z,19.05
2022-08-19T05:58:49.877Z,18.90
2022-08-19T06:01:20.190Z,18.33
2022-08-19T06:03:48.716Z,18.23
2022-08-19T06:06:18.498Z,17.83
2022-08-19T06:08:51.609Z,16.45
2022-08-19T06:11:24.692Z,15.98
2022-08-19T06:13:59.815Z,16.27
2022-08-19T06:16:29.374Z,16.15
2022-08-19T06:18:58.584Z,16.83
2022-08-19T06:21:29.464Z,17.83
2022-08-19T06:23:58.288Z,17.98
2022-08-19T06:26:28.563Z,17.35
2022-08-19T06:28:56.344Z,18.60
2022-08-19T06:31:27.330Z,17.73
2022-08-19T06:33:56.055Z,17.80
2022-08-19T06:36:28.029Z,17.30
2022-08-19T06:38:56.050Z,18.10
2022-08-19T06:41:23.936Z,17.08
2022-08-19T06:43:54.212Z,17.25
2022-08-19T06:46:24.506Z,16.98
2022-08-19T06:48:54.242Z,15.93
2022-08-19T06:51:23.268Z,16.45
2022-08-19T06:53:54.871Z,16.50
2022-08-19T06:56:26.716Z,17.45
2022-08-19T06:58:57.018Z,17.75
2022-08-19T07:01:24.876Z,16.53
2022-08-19T07:03:53.224Z,16.10
2022-08-19T07:09:10.585Z,16.48
2022-08-19T07:11:40.400Z,15.90
2022-08-19T07:14:19.171Z,15.88
2022-08-19T07:16:49.866Z,15.88
2022-08-19T07:19:18.606Z,15.32
2022-08-19T07:21:47.635Z,15.55
2022-08-19T07:24:16.292Z,16.20
2022-08-19T07:26:46.068Z,15.40
2022-08-19T07:29:17.531Z,15.45
2022-08-19T07:31:46.173Z,15.43
2022-08-19T07:34:15.713Z,15.07
2022-08-19T07:37:46.398Z,13.25
2022-08-19T07:40:14.819Z,13.07
2022-08-19T07:43:46.941Z,13.63
2022-08-19T07:47:49.678Z,13.77
2022-08-19T07:50:07.708Z,12.55
2022-08-19T07:52:36.955Z,13.40
2022-08-19T07:55:06.179Z,13.25
2022-08-19T07:57:34.998Z,13.20
2022-08-19T08:00:03.374Z,12.73
2022-08-19T08:02:32.026Z,12.45
2022-08-19T08:05:17.190Z,12.98
2022-08-19T08:08:03.616Z,12.57
2022-08-19T08:10:31.538Z,10.60
2022-08-19T08:13:09.220Z,9.88
2022-08-19T08:15:43.169Z,10.73
2022-08-19T08:18:12.944Z,9.77
2022-08-19T08:21:46.647Z,9.05
2022-08-19T08:24:19.668Z,7.82
2022-08-19T08:26:52.011Z,8.43
2022-08-19T08:29:20.376Z,7.30
2022-08-19T08:31:49.660Z,7.38
2022-08-19T08:35:32.587Z,7.45
2022-08-19T08:38:01.882Z,6.82
2022-08-19T08:40:35.780Z,6.97
2022-08-19T08:43:22.337Z,7.10
2022-08-19T08:45:54.624Z,4.68
2022-08-19T08:48:27.222Z,4.20
2022-08-19T08:50:57.524Z,4.78
2022-08-19T08:53:29.827Z,5.00
2022-08-19T08:56:04.897Z,4.80
2022-08-19T08:58:43.050Z,5.40
2022-08-19T09:01:11.877Z,4.85
2022-08-19T09:03:43.366Z,4.65
2022-08-19T09:06:16.957Z,3.85
2022-08-19T09:08:51.365Z,4.57
2022-08-19T09:11:44.467Z,4.57
2022-08-19T09:14:47.262Z,4.50
2022-08-19T09:17:09.688Z,4.32
2022-08-19T09:19:38.157Z,3.80
2022-08-19T09:22:08.647Z,3.90
2022-08-19T09:24:39.413Z,4.32
2022-08-19T09:27:18.419Z,5.07
2022-08-19T09:29:47.390Z,4.75
2022-08-19T09:32:26.260Z,4.97
2022-08-19T09:34:55.596Z,5.10
2022-08-19T09:37:24.080Z,4.53
2022-08-19T09:39:53.417Z,4.60
2022-08-19T09:42:30.553Z,4.07
2022-08-19T09:45:04.958Z,4.20
2022-08-19T09:47:33.773Z,4.00
2022-08-19T09:50:02.255Z,3.93
2022-08-19T09:52:32.839Z,3.40
2022-08-19T09:55:01.139Z,3.30
2022-08-19T09:57:37.686Z,3.67
2022-08-19T10:00:07.133Z,3.80
2022-08-19T10:02:35.064Z,3.70
2022-08-19T10:05:23.122Z,3.58
2022-08-19T10:07:56.819Z,3.53
2022-08-19T10:10:26.538Z,3.42
2022-08-19T10:12:57.142Z,3.05
2022-08-19T10:15:29.206Z,3.00
2022-08-19T10:18:01.017Z,2.88
2022-08-19T10:20:30.364Z,3.00
2022-08-19T10:23:00.280Z,2.92
2022-08-19T10:25:29.720Z,2.88
2022-08-19T10:28:01.502Z,2.60
2022-08-19T10:30:29.394Z,2.97
2022-08-19T10:32:57.110Z,2.53
2022-08-19T10:35:27.492Z,2.47
2022-08-19T10:37:57.615Z,2.08
2022-08-19T10:40:30.542Z,2.15
2022-08-19T10:42:59.670Z,3.00
2022-08-19T10:45:28.124Z,1.90
2022-08-19T10:47:56.394Z,2.20
2022-08-19T10:50:42.853Z,2.30
2022-08-19T10:53:12.380Z,3.03
2022-08-19T10:56:06.893Z,3.10
2022-08-19T10:58:36.145Z,2.92
2022-08-19T11:01:03.824Z,2.67
2022-08-19T11:03:32.186Z,3.70
2022-08-19T11:06:00.929Z,3.38
2022-08-19T11:08:28.747Z,3.33
2022-08-19T11:11:01.685Z,3.72
2022-08-19T11:13:30.890Z,3.15
2022-08-19T11:16:08.276Z,3.38
2022-08-19T11:18:38.300Z,4.10
2022-08-19T11:21:11.499Z,4.10
2022-08-19T11:23:39.772Z,3.10
2022-08-19T11:26:07.735Z,3.10
2022-08-19T11:28:35.605Z,3.88
2022-08-19T11:31:05.147Z,5.32
2022-08-19T11:33:33.704Z,3.63
2022-08-19T11:36:02.671Z,3.22
2022-08-19T11:38:31.508Z,3.40
2022-08-19T11:41:00.320Z,4.10
2022-08-19T11:43:28.821Z,3.63
2022-08-19T11:45:57.119Z,4.32
2022-08-19T11:48:27.859Z,4.50
2022-08-19T11:50:57.482Z,4.28
2022-08-19T11:53:25.924Z,5.88
2022-08-19T11:55:57.027Z,5.43
2022-08-19T11:58:25.805Z,6.20
2022-08-19T12:00:54.038Z,4.75
2022-08-19T12:03:21.671Z,5.10
2022-08-19T12:05:52.419Z,5.55
2022-08-19T12:08:20.961Z,5.40
2022-08-19T12:10:48.670Z,6.20
2022-08-19T12:13:19.549Z,5.80
2022-08-19T12:15:48.950Z,6.38
2022-08-19T12:18:17.142Z,7.17
2022-08-19T12:20:46.959Z,6.05
2022-08-19T12:23:16.539Z,5.47
2022-08-19T12:25:49.504Z,6.22
2022-08-19T12:28:17.762Z,5.68
2022-08-19T12:30:45.648Z,14.38
2022-08-19T12:33:14.650Z,6.07
2022-08-19T12:35:45.675Z,4.97
2022-08-19T12:38:14.263Z,4.90
2022-08-19T12:40:43.820Z,5.90
2022-08-19T12:43:12.610Z,6.32
2022-08-19T12:45:40.781Z,4.50
2022-08-19T12:48:34.435Z,4.70
2022-08-19T12:50:58.294Z,4.32
2022-08-19T12:53:27.315Z,4.32
2022-08-19T12:55:58.627Z,3.85
2022-08-19T12:58:27.453Z,3.17
2022-08-19T13:00:55.943Z,3.00
2022-08-19T13:03:28.398Z,3.75
2022-08-19T13:05:57.340Z,4.60
2022-08-19T13:08:25.581Z,4.07
2022-08-19T13:10:54.482Z,3.50
2022-08-19T13:13:23.889Z,3.15
2022-08-19T13:15:52.056Z,3.38
2022-08-19T13:18:20.078Z,3.67
2022-08-19T13:20:52.746Z,3.70
2022-08-19T13:23:20.950Z,3.85
2022-08-19T13:25:58.095Z,3.13
2022-08-19T13:28:49.398Z,3.58
2022-08-19T13:31:35.954Z,4.57
2022-08-19T13:34:03.656Z,4.80
2022-08-19T13:36:31.580Z,3.40
2022-08-19T13:39:00.246Z,4.15
2022-08-19T13:41:28.883Z,5.18
2022-08-19T13:43:58.218Z,3.63
2022-08-19T13:46:26.040Z,4.22
2022-08-19T13:48:55.529Z,4.82
2022-08-19T13:51:23.837Z,3.95
2022-08-19T13:53:52.759Z,3.10
2022-08-19T13:56:25.549Z,4.00
2022-08-19T13:58:54.745Z,3.33
2022-08-19T14:01:31.778Z,6.50
2022-08-19T14:04:00.519Z,3.55
2022-08-19T14:06:28.526Z,4.85
2022-08-19T14:08:56.283Z,5.25
2022-08-19T14:11:24.583Z,5.55
2022-08-19T14:13:53.055Z,6.07
2022-08-19T14:16:20.879Z,7.13
2022-08-19T14:18:50.306Z,6.43
2022-08-19T14:21:22.184Z,5.00
2022-08-19T14:23:52.149Z,4.30
2022-08-19T14:26:21.501Z,4.10
2022-08-19T14:28:50.329Z,5.30
2022-08-19T14:31:20.450Z,4.77
2022-08-19T14:33:52.792Z,4.90
2022-08-19T14:36:22.806Z,4.57
2022-08-19T14:38:51.007Z,4.57
2022-08-19T14:41:22.873Z,3.85
2022-08-19T14:43:54.136Z,4.22
2022-08-19T14:46:24.185Z,5.30
2022-08-19T14:48:54.855Z,4.38
2022-08-19T14:51:27.456Z,4.80
2022-08-19T14:53:57.599Z,5.70
2022-08-19T14:56:27.288Z,5.55
2022-08-19T14:58:55.969Z,3.80
2022-08-19T15:01:24.852Z,3.87
2022-08-19T15:03:55.753Z,4.90
2022-08-19T15:06:24.743Z,4.97
2022-08-19T15:08:54.285Z,4.85
2022-08-19T15:11:24.500Z,3.50
2022-08-19T15:13:53.457Z,4.93
2022-08-19T15:16:22.264Z,4.00
2022-08-19T15:18:51.981Z,4.00
2022-08-19T15:21:26.489Z,5.20
2022-08-19T15:23:57.292Z,3.90
2022-08-19T15:26:28.637Z,3.50
2022-08-19T15:28:57.664Z,3.35
2022-08-19T15:31:29.078Z,3.05
2022-08-19T15:33:58.413Z,3.35
2022-08-19T15:36:31.176Z,3.30
2022-08-19T15:39:00.093Z,3.47
2022-08-19T15:41:32.544Z,3.40
2022-08-19T15:44:08.217Z,3.60
2022-08-19T15:46:38.021Z,3.95
2022-08-19T15:49:07.157Z,3.97
2022-08-19T15:51:41.879Z,2.85
2022-08-19T15:54:12.144Z,4.80
2022-08-19T15:56:58.678Z,9.43
2022-08-19T15:59:47.510Z,3.35
2022-08-19T16:02:33.065Z,3.45
2022-08-19T16:05:21.466Z,4.78
2022-08-19T16:07:51.148Z,4.85
2022-08-19T16:10:26.920Z,3.65
2022-08-19T16:12:58.616Z,3.80
2022-08-19T16:15:28.004Z,3.33
2022-08-19T16:17:58.521Z,3.90
2022-08-19T16:20:28.181Z,6.93
2022-08-19T16:22:58.684Z,4.85
2022-08-19T16:25:28.951Z,3.95
2022-08-19T16:28:06.260Z,4.27
2022-08-19T16:30:34.992Z,4.15
2022-08-19T16:33:05.041Z,4.43
2022-08-19T16:35:34.035Z,3.75
2022-08-19T16:38:07.131Z,4.30
2022-08-19T16:40:36.266Z,4.05
2022-08-19T16:43:04.469Z,4.43
2022-08-19T16:45:32.590Z,3.90
2022-08-19T16:48:00.250Z,4.18
2022-08-19T16:50:47.842Z,4.80
2022-08-19T16:53:22.889Z,5.07
2022-08-19T16:55:57.454Z,5.03
2022-08-19T16:58:28.040Z,4.53
2022-08-19T17:01:02.048Z,4.95
2022-08-19T17:03:35.834Z,4.45
2022-08-19T17:06:16.164Z,4.50
2022-08-19T17:08:52.974Z,4.67
2022-08-19T17:11:22.992Z,5.00
2022-08-19T17:14:52.397Z,4.13
2022-08-19T17:17:23.800Z,4.18
2022-08-19T17:19:56.618Z,4.45
2022-08-19T17:23:42.663Z,4.78
2022-08-19T17:26:15.857Z,4.35
2022-08-19T17:28:49.243Z,4.10
2022-08-19T17:32:24.918Z,4.10
2022-08-19T17:34:54.927Z,3.70
2022-08-19T17:37:24.011Z,3.15
2022-08-19T17:39:51.807Z,3.10
2022-08-19T17:42:23.628Z,3.08
2022-08-19T17:48:32.859Z,3.10
2022-08-19T17:51:01.155Z,2.53
2022-08-19T17:53:29.590Z,2.63
2022-08-19T17:55:57.356Z,2.70
2022-08-19T17:58:28.594Z,2.60
2022-08-19T18:00:57.715Z,2.70
2022-08-19T18:03:26.627Z,2.53
2022-08-19T18:05:56.021Z,2.47
2022-08-19T18:08:25.701Z,2.30
2022-08-19T18:10:54.358Z,2.47
2022-08-19T18:13:22.089Z,2.92
2022-08-19T18:15:54.531Z,2.23
2022-08-19T18:18:23.460Z,2.33
2022-08-19T18:20:51.567Z,2.47
2022-08-19T18:23:44.754Z,2.80
2022-08-19T18:26:09.318Z,2.70
2022-08-19T18:28:47.934Z,2.80
2022-08-19T18:31:19.494Z,3.03
2022-08-19T18:33:48.178Z,3.90
2022-08-19T18:36:27.864Z,6.25
2022-08-19T18:39:19.416Z,8.98
2022-08-19T18:42:06.377Z,11.23
2022-08-19T18:44:59.226Z,12.07
2022-08-19T18:47:48.573Z,11.90
2022-08-19T18:50:16.352Z,11.95
2022-08-19T18:52:44.573Z,12.98
2022-08-19T18:55:16.476Z,14.02
2022-08-19T18:57:44.417Z,14.23
2022-08-19T19:00:14.177Z,15.05
2022-08-19T19:02:44.241Z,15.15
2022-08-19T19:05:14.458Z,16.17
2022-08-19T19:07:42.892Z,14.77
2022-08-19T19:10:11.794Z,15.95
2022-08-19T19:12:44.446Z,15.88
2022-08-19T19:15:12.362Z,16.00
2022-08-19T19:17:42.108Z,15.57
2022-08-19T19:20:12.058Z,15.80
2022-08-19T19:22:40.764Z,17.00
2022-08-19T19:25:12.050Z,16.90
2022-08-19T19:27:40.907Z,17.60
2022-08-19T19:30:09.714Z,16.40
2022-08-19T19:32:39.134Z,15.88
2022-08-19T19:35:09.808Z,16.38
2022-08-19T19:37:43.640Z,17.08
2022-08-19T19:40:11.705Z,16.10
2022-08-19T19:42:39.613Z,16.67
2022-08-19T19:45:08.380Z,15.80
2022-08-19T19:47:36.429Z,16.05
2022-08-19T19:50:14.195Z,15.20
2022-08-19T19:52:46.706Z,13.15
2022-08-19T19:55:18.310Z,14.75
2022-08-19T19:57:47.444Z,14.70
2022-08-19T20:00:18.450Z,14.35
2022-08-19T20:02:50.199Z,13.70
2022-08-19T20:05:21.025Z,14.40
2022-08-19T20:08:11.944Z,14.82
2022-08-19T20:10:42.706Z,14.05
2022-08-19T20:13:11.016Z,13.95
2022-08-19T20:15:43.574Z,15.10
2022-08-19T20:18:13.427Z,13.55
2022-08-19T20:20:41.801Z,14.30
2022-08-19T20:23:11.001Z,13.80
2022-08-19T20:25:39.826Z,14.35
2022-08-19T20:28:07.528Z,14.07
2022-08-19T20:30:36.287Z,14.73
2022-08-19T20:33:08.437Z,15.40
2022-08-19T20:35:38.021Z,14.70
2022-08-19T20:38:08.825Z,15.77
2022-08-19T20:40:41.180Z,16.50
2022-08-19T20:43:11.342Z,15.80
2022-08-19T20:45:39.400Z,15.60
2022-08-19T20:48:08.910Z,15.20
2022-08-19T20:50:37.215Z,15.25
2022-08-19T20:53:12.577Z,13.77
2022-08-19T20:55:45.530Z,14.13
2022-08-19T20:58:14.632Z,14.10
2022-08-19T21:00:45.713Z,12.63
2022-08-19T21:03:14.597Z,12.55
2022-08-19T21:05:42.526Z,10.95
2022-08-19T21:08:10.914Z,11.50
2022-08-19T21:10:42.274Z,10.93
2022-08-19T21:13:14.779Z,12.00
2022-08-19T21:15:44.154Z,11.45
2022-08-19T21:18:13.737Z,11.27
2022-08-19T21:20:42.649Z,10.75
2022-08-19T21:23:13.455Z,10.98
2022-08-19T21:25:41.506Z,11.35
2022-08-19T21:28:29.914Z,10.63
2022-08-19T21:31:10.562Z,10.68
2022-08-19T21:33:39.181Z,11.15
2022-08-19T21:36:07.903Z,11.77
2022-08-19T21:38:36.026Z,12.02
2022-08-19T21:41:06.088Z,11.40
2022-08-19T21:43:35.718Z,12.10
2022-08-19T21:46:06.213Z,11.77
2022-08-19T21:48:34.308Z,12.77
2022-08-19T21:51:02.081Z,11.53
2022-08-19T21:53:34.118Z,12.45
2022-08-19T21:56:04.177Z,12.85
2022-08-19T21:58:31.906Z,12.07
2022-08-19T22:01:06.484Z,12.30
2022-08-19T22:03:34.947Z,12.23
2022-08-19T22:06:02.817Z,11.38
2022-08-19T22:08:31.454Z,12.25
2022-08-19T22:11:00.886Z,12.32
2022-08-19T22:13:32.268Z,11.10
2022-08-19T22:16:01.705Z,11.95
2022-08-19T22:18:31.585Z,11.35
2022-08-19T22:21:00.366Z,11.02
2022-08-19T22:23:28.263Z,11.88
2022-08-19T22:25:56.935Z,10.90
2022-08-19T22:28:28.030Z,11.82
2022-08-19T22:30:57.378Z,11.50
2022-08-19T22:33:27.670Z,11.98
2022-08-19T22:35:55.755Z,11.43
2022-08-19T22:38:24.694Z,10.63
2022-08-19T22:40:53.344Z,10.82
2022-08-19T22:43:24.902Z,10.48
2022-08-19T22:45:54.745Z,10.68
2022-08-19T22:48:24.340Z,11.50
2022-08-19T22:51:56.331Z,11.45
2022-08-19T22:54:27.288Z,11.68
2022-08-19T22:56:56.913Z,11.68
2022-08-19T22:59:25.722Z,11.55
2022-08-19T23:01:54.721Z,11.13
2022-08-19T23:04:23.229Z,11.93
2022-08-19T23:06:52.860Z,12.23
2022-08-19T23:09:23.479Z,12.32
2022-08-19T23:11:56.805Z,12.70
2022-08-19T23:14:26.441Z,11.80
2022-08-19T23:16:58.768Z,12.30
2022-08-19T23:19:27.330Z,11.60
2022-08-19T23:21:57.642Z,12.23
2022-08-19T23:24:26.982Z,11.57
2022-08-19T23:27:15.786Z,11.68
2022-08-19T23:30:01.983Z,11.80
2022-08-19T23:32:29.936Z,11.52
2022-08-19T23:35:59.311Z,11.65
2022-08-19T23:38:30.198Z,11.18
2022-08-19T23:40:59.760Z,12.45
2022-08-19T23:43:31.406Z,11.95
2022-08-19T23:46:10.493Z,11.35
2022-08-19T23:48:39.833Z,11.80
2022-08-19T23:51:10.624Z,11.30
2022-08-19T23:53:39.348Z,12.23
2022-08-19T23:56:08.554Z,13.27
2022-08-19T23:58:39.519Z,13.75
